VCBIVRMM

Guest
Details From VCBI - BANDARANAIKE INTL COLOMBO
To VRMM - MALE INTL
Flight Number -
Tags decoded
Created
Modified
Stats Distance 495 nm / 916 km
Max Altitude 0 ft / 0 m
Waypoints 5
Social Downloads 3
Likes 0
Share VATSIM

Download

Looking for another format? Having issues loading an existing format? Contact us
Advertisement - Login to hide

Notes

Requested: VCBI SUPSA GOKAN ATISA RAXON VRMM

Route

VCBI SUPSA ATISA RAXON VRMM

ID Type Via Altitude (ft/m) Position (lat/lon) Dist (leg/tot) Name
O VCBI APT - 0 / 0 7.18075 / 79.88412 - / 0 nm BANDARANAIKE INTL COLOMBO
SUPSA FIX - 0 / 0 6.78367 / 79.05223 55 / 55 nm
ATISA FIX - 0 / 0 3.35611 / 73.52722 389 / 444 nm
RAXON FIX - 0 / 0 3.94217 / 73.52967 35 / 479 nm
O VRMM APT - 0 / 0 4.19183 / 73.52913 14 / 494 nm MALE INTL

Altitude Profile

Advertisement - Login to hide

Weather


0- 5 10 15 20 25 30 35+ Temperature / °C

Clouds and Precipitation
Forecast for 2018-10-15 12:00 UTC. Updated an hour ago

Ground ~20,000 ft ~40,000 ft Winds

VCBI

Details ICAO VCBI (CMB)
Name Bandaranaike International Airport
Region Sri Lanka
Timezone Asia/Colombo (UTC+5.5)
Stats Elevation 28 ft / 9 m (AMSL)
Location 7.181250° 79.883800°
Runways 1
Magnetic Variation 2.008° W

METAR

VCBI 151010Z 26007KT 220V290 9999 FEW017 FEW019CB 30/23 Q1010 NOSIG RMK SE/S

Decode

TAF

Not found

Departure Runways

ID Width Length Bearing (true/mag) Surface Threshold Overrun Markings Lighting
04 148 ft / 45 m 11,001 ft / 3,353 m 37.22° / 39.22° ASPHALT 0 ft / 0 m 217 ft / 66 m PREC-APP CENTERLINE EDGE THRESHOLD ALSF-I REIL-OMNI
22 148 ft / 45 m 11,001 ft / 3,353 m 217.22° / 219.23° ASPHALT 0 ft / 0 m 299 ft / 91 m PREC-APP CENTERLINE EDGE THRESHOLD ALSF-II TDZ REIL-OMNI

VRMM

Details ICAO VRMM (MLE)
Name Ibrahim Nasir International Airport
Region Maldives
Timezone Indian/Maldives (UTC+5.0)
Stats Elevation 3 ft / 1 m (AMSL)
Location 4.191750° 73.529200°
Runways 1
Magnetic Variation 2.771° W

METAR

VRMM 151000Z 26004KT 9999 FEW018 BKN280 30/24 Q1010 NOSIG

Decode

TAF

TAF VRMM 150500Z 1506/1612 23005KT 9999 FEW019 TEMPO 1508/1512 FEW020CB

Decode

Destination Runways

ID Width Length Bearing (true/mag) Surface Threshold Overrun Markings Lighting
18 148 ft / 45 m 10,509 ft / 3,203 m 179.09° / 181.86° ASPHALT 328 ft / 100 m 233 ft / 71 m PREC-APP CENTERLINE EDGE THRESHOLD MALSF
36 148 ft / 45 m 10,509 ft / 3,203 m 359.09° / 1.86° ASPHALT 951 ft / 290 m 249 ft / 76 m PREC-APP CENTERLINE EDGE THRESHOLD MALSF

Approach Navaids

Runway Type Ident Frequency Range Bearing (true/mag) Slope Elevation
36 GS IML 108.70 MHz 10 nm / 19 km 359.11° / 1.88 ° 3.00° 5 ft / 2 m (AMSL)
36 DME IML 108.70 MHz 18 nm / 33 km - - 22 ft / 7 m (AMSL)
36 LOC-ILS IML 108.70 MHz 18 nm / 33 km 359.58° / 2.35 ° - 5 ft / 2 m (AMSL)

Popular Alternatives